sensor_id;sensor_type;location;lat;lon;timestamp;pressure;altitude;pressure_sealevel;temperature;humidity
73103;BME280;61294;65.988;29.172;2023-05-25T00:01:30;97796.75;;;10.08;84.78
73103;BME280;61294;65.988;29.172;2023-05-25T00:03:59;97780.09;;;10.08;84.37
73103;BME280;61294;65.988;29.172;2023-05-25T00:06:27;97781.00;;;10.07;84.59
73103;BME280;61294;65.988;29.172;2023-05-25T00:08:55;97781.00;;;10.07;84.92
73103;BME280;61294;65.988;29.172;2023-05-25T00:11:25;97744.50;;;9.87;85.17
73103;BME280;61294;65.988;29.172;2023-05-25T00:13:51;97739.16;;;9.90;84.35
73103;BME280;61294;65.988;29.172;2023-05-25T00:16:17;97766.16;;;10.01;84.86
73103;BME280;61294;65.988;29.172;2023-05-25T00:18:43;97730.59;;;9.78;85.44
73103;BME280;61294;65.988;29.172;2023-05-25T00:21:09;97727.16;;;9.73;85.40
73103;BME280;61294;65.988;29.172;2023-05-25T00:23:36;97763.69;;;9.92;85.50
73103;BME280;61294;65.988;29.172;2023-05-25T00:26:02;97734.91;;;9.82;85.05
73103;BME280;61294;65.988;29.172;2023-05-25T00:28:28;97718.28;;;9.82;85.00
73103;BME280;61294;65.988;29.172;2023-05-25T00:30:54;97751.44;;;9.91;85.64
73103;BME280;61294;65.988;29.172;2023-05-25T00:33:20;97723.53;;;9.80;85.35
73103;BME280;61294;65.988;29.172;2023-05-25T00:35:47;97740.13;;;9.85;85.86
73103;BME280;61294;65.988;29.172;2023-05-25T00:38:14;97735.75;;;9.84;86.24
73103;BME280;61294;65.988;29.172;2023-05-25T00:40:41;97736.69;;;9.80;86.44
73103;BME280;61294;65.988;29.172;2023-05-25T00:43:07;97696.84;;;9.52;86.63
73103;BME280;61294;65.988;29.172;2023-05-25T00:45:33;97701.03;;;9.62;86.10
73103;BME280;61294;65.988;29.172;2023-05-25T00:48:00;97704.47;;;9.69;85.89
73103;BME280;61294;65.988;29.172;2023-05-25T00:50:40;97726.97;;;9.85;85.91
73103;BME280;61294;65.988;29.172;2023-05-25T00:53:08;97730.41;;;9.91;85.96
73103;BME280;61294;65.988;29.172;2023-05-25T00:55:45;97718.97;;;9.90;85.96
73103;BME280;61294;65.988;29.172;2023-05-25T00:58:16;97727.81;;;9.86;86.18
73103;BME280;61294;65.988;29.172;2023-05-25T01:00:46;97722.63;;;9.83;86.64
73103;BME280;61294;65.988;29.172;2023-05-25T01:03:14;97684.38;;;9.63;86.59
73103;BME280;61294;65.988;29.172;2023-05-25T01:05:47;97685.06;;;9.73;86.68
73103;BME280;61294;65.988;29.172;2023-05-25T01:08:15;97721.69;;;9.85;86.68
73103;BME280;61294;65.988;29.172;2023-05-25T01:10:42;97677.25;;;9.70;86.55
73103;BME280;61294;65.988;29.172;2023-05-25T01:13:09;97705.84;;;9.89;86.87
73103;BME280;61294;65.988;29.172;2023-05-25T01:15:37;97697.13;;;9.88;87.00
73103;BME280;61294;65.988;29.172;2023-05-25T01:18:04;97691.75;;;9.93;86.67
73103;BME280;61294;65.988;29.172;2023-05-25T01:20:30;97690.03;;;9.92;86.58
73103;BME280;61294;65.988;29.172;2023-05-25T01:23:04;97687.50;;;9.85;87.01
73103;BME280;61294;65.988;29.172;2023-05-25T01:25:50;97650.94;;;9.70;87.58
73103;BME280;61294;65.988;29.172;2023-05-25T01:28:24;97684.78;;;9.90;87.52
73103;BME280;61294;65.988;29.172;2023-05-25T01:30:55;97692.66;;;9.92;87.82
73103;BME280;61294;65.988;29.172;2023-05-25T01:33:23;97699.59;;;9.96;87.78
73103;BME280;61294;65.988;29.172;2023-05-25T01:35:49;97703.19;;;9.90;88.62
73103;BME280;61294;65.988;29.172;2023-05-25T01:38:16;97678.19;;;9.66;88.98
73103;BME280;61294;65.988;29.172;2023-05-25T01:40:43;97693.53;;;9.92;88.50
73103;BME280;61294;65.988;29.172;2023-05-25T01:43:09;97704.13;;;9.89;89.38
73103;BME280;61294;65.988;29.172;2023-05-25T01:45:35;97699.75;;;9.88;89.37
73103;BME280;61294;65.988;29.172;2023-05-25T01:49:08;97695.25;;;9.95;89.28
73103;BME280;61294;65.988;29.172;2023-05-25T01:51:09;97680.41;;;9.91;89.30
73103;BME280;61294;65.988;29.172;2023-05-25T01:53:44;97689.09;;;9.94;89.04
73103;BME280;61294;65.988;29.172;2023-05-25T01:56:12;97699.63;;;9.94;89.81
73103;BME280;61294;65.988;29.172;2023-05-25T01:58:43;97666.75;;;9.68;89.63
73103;BME280;61294;65.988;29.172;2023-05-25T02:01:13;97688.28;;;9.92;90.06
73103;BME280;61294;65.988;29.172;2023-05-25T02:03:40;97643.75;;;9.81;89.95
73103;BME280;61294;65.988;29.172;2023-05-25T02:06:07;97628.84;;;9.82;89.55
73103;BME280;61294;65.988;29.172;2023-05-25T02:08:33;97652.28;;;9.94;89.62
73103;BME280;61294;65.988;29.172;2023-05-25T02:10:59;97660.19;;;9.93;89.60
73103;BME280;61294;65.988;29.172;2023-05-25T02:13:25;97665.44;;;9.94;90.58
73103;BME280;61294;65.988;29.172;2023-05-25T02:15:52;97646.94;;;9.97;89.92
73103;BME280;61294;65.988;29.172;2023-05-25T02:18:18;97634.88;;;9.87;90.85
73103;BME280;61294;65.988;29.172;2023-05-25T02:20:44;97659.38;;;9.91;90.75
73103;BME280;61294;65.988;29.172;2023-05-25T02:23:10;97671.66;;;9.89;90.68
73103;BME280;61294;65.988;29.172;2023-05-25T02:25:36;97665.69;;;9.79;91.62
73103;BME280;61294;65.988;29.172;2023-05-25T02:28:02;97634.47;;;9.59;91.86
73103;BME280;61294;65.988;29.172;2023-05-25T02:30:28;97620.38;;;9.64;91.93
73103;BME280;61294;65.988;29.172;2023-05-25T02:32:54;97648.97;;;9.83;91.94
73103;BME280;61294;65.988;29.172;2023-05-25T02:35:21;97608.03;;;9.68;91.93
73103;BME280;61294;65.988;29.172;2023-05-25T02:37:47;97642.78;;;9.85;91.50
73103;BME280;61294;65.988;29.172;2023-05-25T02:40:13;97647.13;;;9.88;91.50
73103;BME280;61294;65.988;29.172;2023-05-25T02:42:39;97613.31;;;9.68;91.95
73103;BME280;61294;65.988;29.172;2023-05-25T02:45:08;97652.53;;;9.79;92.09
73103;BME280;61294;65.988;29.172;2023-05-25T02:47:35;97655.94;;;9.85;92.32
73103;BME280;61294;65.988;29.172;2023-05-25T02:50:01;97655.03;;;9.88;92.79
73103;BME280;61294;65.988;29.172;2023-05-25T02:52:27;97643.75;;;9.81;92.96
73103;BME280;61294;65.988;29.172;2023-05-25T02:54:55;97636.09;;;9.69;93.49
73103;BME280;61294;65.988;29.172;2023-05-25T02:57:21;97634.50;;;9.57;94.34
73103;BME280;61294;65.988;29.172;2023-05-25T02:59:48;97603.19;;;9.45;95.15
73103;BME280;61294;65.988;29.172;2023-05-25T03:02:14;97626.31;;;9.76;94.65
73103;BME280;61294;65.988;29.172;2023-05-25T03:04:43;97622.84;;;9.74;94.78
73103;BME280;61294;65.988;29.172;2023-05-25T03:07:11;97601.22;;;9.56;95.32
73103;BME280;61294;65.988;29.172;2023-05-25T03:09:37;97630.72;;;9.75;96.23
73103;BME280;61294;65.988;29.172;2023-05-25T03:12:04;97588.13;;;9.53;96.46
73103;BME280;61294;65.988;29.172;2023-05-25T03:14:30;97619.38;;;9.70;95.73
73103;BME280;61294;65.988;29.172;2023-05-25T03:16:55;97629.03;;;9.71;96.42
73103;BME280;61294;65.988;29.172;2023-05-25T03:19:22;97621.91;;;9.78;96.37
73103;BME280;61294;65.988;29.172;2023-05-25T03:21:47;97603.75;;;9.62;96.88
73103;BME280;61294;65.988;29.172;2023-05-25T03:24:13;97613.38;;;9.62;96.22
73103;BME280;61294;65.988;29.172;2023-05-25T03:26:39;97609.03;;;9.61;96.94
73103;BME280;61294;65.988;29.172;2023-05-25T03:29:05;97602.97;;;9.57;97.54
73103;BME280;61294;65.988;29.172;2023-05-25T03:31:31;97564.56;;;9.48;97.41
73103;BME280;61294;65.988;29.172;2023-05-25T03:33:57;97572.28;;;9.59;97.68
73103;BME280;61294;65.988;29.172;2023-05-25T03:36:23;97590.41;;;9.73;98.00
73103;BME280;61294;65.988;29.172;2023-05-25T03:38:53;97599.16;;;9.75;97.79
73103;BME280;61294;65.988;29.172;2023-05-25T03:41:19;97562.50;;;9.64;96.79
73103;BME280;61294;65.988;29.172;2023-05-25T03:43:45;97589.38;;;9.82;97.52
73103;BME280;61294;65.988;29.172;2023-05-25T03:46:11;97592.25;;;9.70;97.56
73103;BME280;61294;65.988;29.172;2023-05-25T03:48:37;97563.47;;;9.60;97.89
73103;BME280;61294;65.988;29.172;2023-05-25T03:51:03;97553.06;;;9.54;98.16
73103;BME280;61294;65.988;29.172;2023-05-25T03:53:29;97594.63;;;9.83;97.81
73103;BME280;61294;65.988;29.172;2023-05-25T03:55:55;97554.63;;;9.64;97.98
73103;BME280;61294;65.988;29.172;2023-05-25T03:58:21;97572.78;;;9.78;98.28
73103;BME280;61294;65.988;29.172;2023-05-25T04:00:47;97574.59;;;9.76;98.89
73103;BME280;61294;65.988;29.172;2023-05-25T04:03:14;97586.03;;;9.74;98.86
73103;BME280;61294;65.988;29.172;2023-05-25T04:05:40;97579.09;;;9.70;99.67
73103;BME280;61294;65.988;29.172;2023-05-25T04:08:07;97590.31;;;9.79;99.95
73103;BME280;61294;65.988;29.172;2023-05-25T04:10:34;97571.78;;;9.85;99.70
73103;BME280;61294;65.988;29.172;2023-05-25T04:13:00;97577.88;;;9.86;98.36
73103;BME280;61294;65.988;29.172;2023-05-25T04:15:25;97581.22;;;9.96;98.99
73103;BME280;61294;65.988;29.172;2023-05-25T04:17:51;97580.72;;;9.77;99.30
73103;BME280;61294;65.988;29.172;2023-05-25T04:20:17;97582.34;;;9.82;100.00
73103;BME280;61294;65.988;29.172;2023-05-25T04:22:43;97577.19;;;9.78;100.00
73103;BME280;61294;65.988;29.172;2023-05-25T04:25:09;97575.41;;;9.78;100.00
73103;BME280;61294;65.988;29.172;2023-05-25T04:27:36;97584.00;;;9.88;100.00
73103;BME280;61294;65.988;29.172;2023-05-25T04:30:03;97536.19;;;9.66;100.00
73103;BME280;61294;65.988;29.172;2023-05-25T04:32:29;97564.16;;;9.70;100.00
73103;BME280;61294;65.988;29.172;2023-05-25T04:34:56;97569.50;;;9.67;100.00
73103;BME280;61294;65.988;29.172;2023-05-25T04:37:23;97570.25;;;9.74;100.00
73103;BME280;61294;65.988;29.172;2023-05-25T04:39:53;97531.81;;;9.66;100.00
73103;BME280;61294;65.988;29.172;2023-05-25T04:42:19;97529.25;;;9.63;100.00
73103;BME280;61294;65.988;29.172;2023-05-25T04:44:51;97553.47;;;9.81;100.00
73103;BME280;61294;65.988;29.172;2023-05-25T04:47:21;97551.56;;;9.89;100.00
73103;BME280;61294;65.988;29.172;2023-05-25T04:49:46;97549.69;;;9.94;100.00
73103;BME280;61294;65.988;29.172;2023-05-25T04:52:12;97544.25;;;10.04;100.00
73103;BME280;61294;65.988;29.172;2023-05-25T04:54:38;97539.88;;;10.02;100.00
73103;BME280;61294;65.988;29.172;2023-05-25T04:57:04;97504.09;;;9.94;100.00
73103;BME280;61294;65.988;29.172;2023-05-25T04:59:30;97510.66;;;10.16;100.00
73103;BME280;61294;65.988;29.172;2023-05-25T05:01:56;97536.63;;;10.33;100.00
73103;BME280;61294;65.988;29.172;2023-05-25T05:04:22;97536.94;;;10.18;100.00
73103;BME280;61294;65.988;29.172;2023-05-25T05:06:48;97506.50;;;10.06;100.00
73103;BME280;61294;65.988;29.172;2023-05-25T05:09:14;97522.03;;;10.17;100.00
73103;BME280;61294;65.988;29.172;2023-05-25T05:11:40;97490.91;;;9.95;100.00
73103;BME280;61294;65.988;29.172;2023-05-25T05:14:06;97532.19;;;9.93;100.00
73103;BME280;61294;65.988;29.172;2023-05-25T05:16:32;97497.59;;;9.68;100.00
73103;BME280;61294;65.988;29.172;2023-05-25T05:19:02;97521.47;;;10.02;100.00
73103;BME280;61294;65.988;29.172;2023-05-25T05:21:29;97491.53;;;10.08;100.00
73103;BME280;61294;65.988;29.172;2023-05-25T05:23:55;97489.72;;;10.12;100.00
73103;BME280;61294;65.988;29.172;2023-05-25T05:26:21;97519.63;;;10.48;100.00
73103;BME280;61294;65.988;29.172;2023-05-25T05:28:47;97520.66;;;10.41;100.00
73103;BME280;61294;65.988;29.172;2023-05-25T05:31:13;97508.34;;;10.43;100.00
73103;BME280;61294;65.988;29.172;2023-05-25T05:33:42;97504.88;;;10.41;100.00
73103;BME280;61294;65.988;29.172;2023-05-25T05:36:08;97499.75;;;10.35;100.00
73103;BME280;61294;65.988;29.172;2023-05-25T05:38:34;97471.13;;;10.18;100.00
73103;BME280;61294;65.988;29.172;2023-05-25T05:41:00;97471.69;;;10.34;100.00
73103;BME280;61294;65.988;29.172;2023-05-25T05:43:27;97496.56;;;10.19;100.00
73103;BME280;61294;65.988;29.172;2023-05-25T05:45:53;97475.84;;;10.04;100.00
73103;BME280;61294;65.988;29.172;2023-05-25T05:48:18;97472.13;;;10.12;100.00
73103;BME280;61294;65.988;29.172;2023-05-25T05:50:44;97495.00;;;10.09;100.00
73103;BME280;61294;65.988;29.172;2023-05-25T05:53:10;97497.06;;;9.94;100.00
73103;BME280;61294;65.988;29.172;2023-05-25T05:55:36;97512.25;;;9.80;100.00
73103;BME280;61294;65.988;29.172;2023-05-25T05:58:02;97513.16;;;9.33;100.00
73103;BME280;61294;65.988;29.172;2023-05-25T06:00:28;97520.41;;;9.18;100.00
73103;BME280;61294;65.988;29.172;2023-05-25T06:02:54;97484.63;;;9.10;100.00
73103;BME280;61294;65.988;29.172;2023-05-25T06:05:20;97511.50;;;9.28;100.00
73103;BME280;61294;65.988;29.172;2023-05-25T06:07:46;97491.66;;;9.10;100.00
73103;BME280;61294;65.988;29.172;2023-05-25T06:10:12;97518.09;;;8.99;99.11
73103;BME280;61294;65.988;29.172;2023-05-25T06:12:38;97487.16;;;8.63;99.26
73103;BME280;61294;65.988;29.172;2023-05-25T06:15:04;97482.13;;;8.50;98.84
73103;BME280;61294;65.988;29.172;2023-05-25T06:17:30;97507.19;;;8.71;100.00
73103;BME280;61294;65.988;29.172;2023-05-25T06:19:56;97521.28;;;8.63;98.84
73103;BME280;61294;65.988;29.172;2023-05-25T06:22:22;97508.44;;;8.42;99.13
73103;BME280;61294;65.988;29.172;2023-05-25T06:24:52;97506.00;;;8.29;98.06
73103;BME280;61294;65.988;29.172;2023-05-25T06:27:18;97537.19;;;8.54;97.85
73103;BME280;61294;65.988;29.172;2023-05-25T06:29:44;97512.78;;;8.46;97.39
73103;BME280;61294;65.988;29.172;2023-05-25T06:32:10;97528.91;;;8.80;97.53
73103;BME280;61294;65.988;29.172;2023-05-25T06:34:36;97501.66;;;8.89;97.31
73103;BME280;61294;65.988;29.172;2023-05-25T06:37:03;97529.28;;;9.10;96.29
73103;BME280;61294;65.988;29.172;2023-05-25T06:39:29;97471.09;;;8.82;94.00
73103;BME280;61294;65.988;29.172;2023-05-25T06:41:54;97521.47;;;9.07;94.82
73103;BME280;61294;65.988;29.172;2023-05-25T06:44:20;97518.78;;;9.10;95.14
73103;BME280;61294;65.988;29.172;2023-05-25T06:46:46;97509.66;;;9.31;94.71
73103;BME280;61294;65.988;29.172;2023-05-25T06:49:12;97476.34;;;9.33;93.09
73103;BME280;61294;65.988;29.172;2023-05-25T06:51:38;97496.81;;;9.63;92.81
73103;BME280;61294;65.988;29.172;2023-05-25T06:54:04;97498.97;;;9.86;91.87
73103;BME280;61294;65.988;29.172;2023-05-25T06:56:30;97463.28;;;9.74;91.72
73103;BME280;61294;65.988;29.172;2023-05-25T06:58:55;97495.31;;;9.95;90.99
73103;BME280;61294;65.988;29.172;2023-05-25T07:01:21;97479.47;;;9.54;89.97
73103;BME280;61294;65.988;29.172;2023-05-25T07:03:47;97497.63;;;9.66;90.26
73103;BME280;61294;65.988;29.172;2023-05-25T07:06:13;97472.75;;;9.39;89.89
73103;BME280;61294;65.988;29.172;2023-05-25T07:08:41;97508.19;;;9.65;89.76
73103;BME280;61294;65.988;29.172;2023-05-25T07:11:07;97503.03;;;9.59;88.99
73103;BME280;61294;65.988;29.172;2023-05-25T07:13:36;97477.66;;;9.56;89.71
73103;BME280;61294;65.988;29.172;2023-05-25T07:16:02;97477.50;;;9.65;89.08
73103;BME280;61294;65.988;29.172;2023-05-25T07:18:28;97475.88;;;9.58;89.42
73103;BME280;61294;65.988;29.172;2023-05-25T07:20:54;97509.47;;;9.42;90.60
73103;BME280;61294;65.988;29.172;2023-05-25T07:23:19;97476.28;;;9.37;91.99
73103;BME280;61294;65.988;29.172;2023-05-25T07:25:45;97511.47;;;9.75;91.01
73103;BME280;61294;65.988;29.172;2023-05-25T07:28:12;97475.50;;;9.77;91.27
73103;BME280;61294;65.988;29.172;2023-05-25T07:30:39;97514.94;;;9.78;89.12
73103;BME280;61294;65.988;29.172;2023-05-25T07:33:05;97515.13;;;9.67;90.01
73103;BME280;61294;65.988;29.172;2023-05-25T07:35:31;97464.69;;;9.47;89.48
73103;BME280;61294;65.988;29.172;2023-05-25T07:38:01;97495.25;;;9.53;90.00
73103;BME280;61294;65.988;29.172;2023-05-25T07:40:28;97488.16;;;9.56;90.76
73103;BME280;61294;65.988;29.172;2023-05-25T07:42:55;97493.09;;;9.73;90.50
73103;BME280;61294;65.988;29.172;2023-05-25T07:45:21;97456.69;;;9.53;90.12
73103;BME280;61294;65.988;29.172;2023-05-25T07:47:47;97503.56;;;9.78;90.21
73103;BME280;61294;65.988;29.172;2023-05-25T07:50:13;97501.97;;;9.67;90.54
73103;BME280;61294;65.988;29.172;2023-05-25T07:52:40;97516.78;;;9.73;91.54
73103;BME280;61294;65.988;29.172;2023-05-25T07:55:06;97477.09;;;9.40;91.44
73103;BME280;61294;65.988;29.172;2023-05-25T07:57:32;97512.63;;;9.61;92.04
73103;BME280;61294;65.988;29.172;2023-05-25T07:59:58;97500.34;;;9.62;93.07
73103;BME280;61294;65.988;29.172;2023-05-25T08:02:24;97500.50;;;9.54;93.54
73103;BME280;61294;65.988;29.172;2023-05-25T08:04:50;97504.59;;;9.67;93.84
73103;BME280;61294;65.988;29.172;2023-05-25T08:07:18;97503.31;;;9.89;93.76
73103;BME280;61294;65.988;29.172;2023-05-25T08:09:44;97503.66;;;10.15;93.12
73103;BME280;61294;65.988;29.172;2023-05-25T08:12:10;97512.09;;;10.30;92.80
73103;BME280;61294;65.988;29.172;2023-05-25T08:14:36;97506.81;;;10.31;92.66
73103;BME280;61294;65.988;29.172;2023-05-25T08:17:02;97510.81;;;10.51;92.43
73103;BME280;61294;65.988;29.172;2023-05-25T08:19:29;97512.19;;;10.67;91.86
73103;BME280;61294;65.988;29.172;2023-05-25T08:21:58;97510.50;;;10.65;91.70
73103;BME280;61294;65.988;29.172;2023-05-25T08:24:24;97481.03;;;10.49;89.41
73103;BME280;61294;65.988;29.172;2023-05-25T08:26:50;97470.31;;;10.93;88.79
73103;BME280;61294;65.988;29.172;2023-05-25T08:29:17;97511.66;;;11.25;88.04
73103;BME280;61294;65.988;29.172;2023-05-25T08:31:43;97507.31;;;11.22;87.52
73103;BME280;61294;65.988;29.172;2023-05-25T08:34:14;97499.50;;;11.52;86.82
73103;BME280;61294;65.988;29.172;2023-05-25T08:36:40;97503.56;;;11.66;86.97
73103;BME280;61294;65.988;29.172;2023-05-25T08:39:06;97502.88;;;11.59;86.86
73103;BME280;61294;65.988;29.172;2023-05-25T08:41:40;97518.66;;;11.61;85.58
73103;BME280;61294;65.988;29.172;2023-05-25T08:44:06;97494.28;;;11.51;81.39
73103;BME280;61294;65.988;29.172;2023-05-25T08:46:33;97511.91;;;11.82;80.95
73103;BME280;61294;65.988;29.172;2023-05-25T08:49:25;97496.56;;;12.28;80.30
73103;BME280;61294;65.988;29.172;2023-05-25T08:51:53;97477.84;;;12.05;78.20
73103;BME280;61294;65.988;29.172;2023-05-25T08:54:49;97516.44;;;11.77;80.56
73103;BME280;61294;65.988;29.172;2023-05-25T08:57:18;97507.19;;;11.62;78.47
73103;BME280;61294;65.988;29.172;2023-05-25T08:59:57;97519.34;;;11.34;77.02
73103;BME280;61294;65.988;29.172;2023-05-25T09:05:12;97521.13;;;11.32;77.47
73103;BME280;61294;65.988;29.172;2023-05-25T09:07:40;97530.00;;;10.94;76.70
73103;BME280;61294;65.988;29.172;2023-05-25T09:10:07;97502.84;;;10.90;77.70
73103;BME280;61294;65.988;29.172;2023-05-25T09:12:35;97496.72;;;10.90;75.74
73103;BME280;61294;65.988;29.172;2023-05-25T09:15:01;97513.81;;;10.71;77.86
73103;BME280;61294;65.988;29.172;2023-05-25T09:17:27;97547.41;;;11.01;78.92
73103;BME280;61294;65.988;29.172;2023-05-25T09:19:53;97548.25;;;11.37;75.49
73103;BME280;61294;65.988;29.172;2023-05-25T09:22:19;97537.25;;;11.20;75.53
73103;BME280;61294;65.988;29.172;2023-05-25T09:24:45;97547.78;;;10.84;73.87
73103;BME280;61294;65.988;29.172;2023-05-25T09:27:15;97554.38;;;11.03;73.92
73103;BME280;61294;65.988;29.172;2023-05-25T09:29:50;97534.81;;;11.80;70.44
73103;BME280;61294;65.988;29.172;2023-05-25T09:32:17;97549.22;;;12.90;68.91
73103;BME280;61294;65.988;29.172;2023-05-25T09:34:45;97523.22;;;13.32;66.53
73103;BME280;61294;65.988;29.172;2023-05-25T09:37:12;97545.19;;;13.86;62.72
73103;BME280;61294;65.988;29.172;2023-05-25T09:39:42;97515.44;;;15.18;60.11
73103;BME280;61294;65.988;29.172;2023-05-25T09:42:11;97526.63;;;18.60;45.61
73103;BME280;61294;65.988;29.172;2023-05-25T09:44:38;97517.38;;;23.73;39.54
73103;BME280;61294;65.988;29.172;2023-05-25T09:47:04;97525.06;;;25.04;38.08
73103;BME280;61294;65.988;29.172;2023-05-25T09:49:30;97509.31;;;24.99;34.29
73103;BME280;61294;65.988;29.172;2023-05-25T09:51:56;97512.69;;;25.12;33.10
73103;BME280;61294;65.988;29.172;2023-05-25T09:54:22;97538.56;;;23.53;34.44
73103;BME280;61294;65.988;29.172;2023-05-25T09:56:48;97519.53;;;20.72;38.65
73103;BME280;61294;65.988;29.172;2023-05-25T09:59:14;97536.50;;;23.33;34.70
73103;BME280;61294;65.988;29.172;2023-05-25T10:01:40;97498.50;;;26.39;32.42
73103;BME280;61294;65.988;29.172;2023-05-25T10:04:06;97494.31;;;25.61;31.54
73103;BME280;61294;65.988;29.172;2023-05-25T10:06:32;97517.44;;;27.59;25.63
73103;BME280;61294;65.988;29.172;2023-05-25T10:08:59;97517.63;;;27.48;27.66
73103;BME280;61294;65.988;29.172;2023-05-25T10:11:26;97494.75;;;28.76;27.24
73103;BME280;61294;65.988;29.172;2023-05-25T10:13:53;97508.47;;;28.65;26.63
73103;BME280;61294;65.988;29.172;2023-05-25T10:16:24;97484.19;;;28.73;25.70
73103;BME280;61294;65.988;29.172;2023-05-25T10:21:28;97482.38;;;28.91;27.13
73103;BME280;61294;65.988;29.172;2023-05-25T10:24:03;97481.25;;;28.84;23.36
73103;BME280;61294;65.988;29.172;2023-05-25T10:26:34;97477.72;;;30.10;23.38
73103;BME280;61294;65.988;29.172;2023-05-25T10:29:02;97482.31;;;29.83;24.07
73103;BME280;61294;65.988;29.172;2023-05-25T10:31:30;97505.00;;;26.36;28.71
73103;BME280;61294;65.988;29.172;2023-05-25T10:33:58;97498.94;;;24.49;30.02
73103;BME280;61294;65.988;29.172;2023-05-25T10:36:24;97484.44;;;20.76;33.42
73103;BME280;61294;65.988;29.172;2023-05-25T10:38:51;97478.94;;;20.07;34.92
73103;BME280;61294;65.988;29.172;2023-05-25T10:41:19;97475.53;;;23.22;29.04
73103;BME280;61294;65.988;29.172;2023-05-25T10:43:46;97500.38;;;20.78;33.13
73103;BME280;61294;65.988;29.172;2023-05-25T10:46:12;97493.78;;;21.78;29.51
73103;BME280;61294;65.988;29.172;2023-05-25T10:48:45;97488.16;;;23.68;28.44
73103;BME280;61294;65.988;29.172;2023-05-25T10:51:12;97463.13;;;25.69;26.00
73103;BME280;61294;65.988;29.172;2023-05-25T10:53:42;97464.41;;;26.78;22.30
73103;BME280;61294;65.988;29.172;2023-05-25T10:56:09;97479.69;;;28.16;22.52
73103;BME280;61294;65.988;29.172;2023-05-25T10:58:40;97460.47;;;27.02;23.16
73103;BME280;61294;65.988;29.172;2023-05-25T11:01:13;97486.69;;;27.21;21.19
73103;BME280;61294;65.988;29.172;2023-05-25T11:06:13;97485.69;;;28.00;21.05
73103;BME280;61294;65.988;29.172;2023-05-25T11:08:59;97468.88;;;28.06;19.55
73103;BME280;61294;65.988;29.172;2023-05-25T11:17:13;97458.00;;;26.08;19.12
73103;BME280;61294;65.988;29.172;2023-05-25T11:19:49;97464.19;;;27.20;18.30
73103;BME280;61294;65.988;29.172;2023-05-25T11:22:30;97497.44;;;28.29;18.05
73103;BME280;61294;65.988;29.172;2023-05-25T11:24:58;97502.97;;;26.49;17.72
73103;BME280;61294;65.988;29.172;2023-05-25T11:27:26;97496.31;;;28.31;16.51
73103;BME280;61294;65.988;29.172;2023-05-25T11:29:53;97488.16;;;29.24;18.86
73103;BME280;61294;65.988;29.172;2023-05-25T11:32:20;97501.09;;;30.03;18.34
73103;BME280;61294;65.988;29.172;2023-05-25T11:34:47;97501.63;;;28.61;16.76
73103;BME280;61294;65.988;29.172;2023-05-25T11:37:17;97492.13;;;28.47;17.18
73103;BME280;61294;65.988;29.172;2023-05-25T11:39:47;97481.28;;;28.47;17.05
73103;BME280;61294;65.988;29.172;2023-05-25T11:42:13;97472.22;;;28.28;17.49
73103;BME280;61294;65.988;29.172;2023-05-25T11:44:39;97496.34;;;29.60;16.84
73103;BME280;61294;65.988;29.172;2023-05-25T11:47:07;97494.50;;;30.05;16.60
73103;BME280;61294;65.988;29.172;2023-05-25T11:49:38;97497.06;;;29.17;15.65
73103;BME280;61294;65.988;29.172;2023-05-25T11:52:06;97495.97;;;28.82;17.19
73103;BME280;61294;65.988;29.172;2023-05-25T11:54:32;97495.72;;;29.03;15.34
73103;BME280;61294;65.988;29.172;2023-05-25T11:56:58;97510.69;;;29.89;16.90
73103;BME280;61294;65.988;29.172;2023-05-25T11:59:26;97500.03;;;28.20;16.58
73103;BME280;61294;65.988;29.172;2023-05-25T12:02:10;97486.09;;;29.54;16.43
73103;BME280;61294;65.988;29.172;2023-05-25T12:04:36;97497.44;;;30.38;16.03
73103;BME280;61294;65.988;29.172;2023-05-25T12:07:03;97477.09;;;29.54;15.83
73103;BME280;61294;65.988;29.172;2023-05-25T12:09:29;97478.75;;;28.35;15.22
73103;BME280;61294;65.988;29.172;2023-05-25T12:11:56;97496.63;;;27.89;16.14
73103;BME280;61294;65.988;29.172;2023-05-25T12:14:22;97491.56;;;27.47;16.70
73103;BME280;61294;65.988;29.172;2023-05-25T12:16:49;97514.44;;;28.11;16.54
73103;BME280;61294;65.988;29.172;2023-05-25T12:19:15;97506.13;;;28.42;15.91
73103;BME280;61294;65.988;29.172;2023-05-25T12:21:42;97492.84;;;29.50;15.69
73103;BME280;61294;65.988;29.172;2023-05-25T12:24:09;97508.03;;;27.93;15.57
73103;BME280;61294;65.988;29.172;2023-05-25T12:26:47;97512.59;;;28.02;15.94
73103;BME280;61294;65.988;29.172;2023-05-25T12:29:13;97519.28;;;28.17;17.55
73103;BME280;61294;65.988;29.172;2023-05-25T12:31:39;97488.66;;;27.97;15.76
73103;BME280;61294;65.988;29.172;2023-05-25T12:34:13;97528.69;;;28.13;16.34
73103;BME280;61294;65.988;29.172;2023-05-25T12:41:57;97488.19;;;28.21;15.36
73103;BME280;61294;65.988;29.172;2023-05-25T12:44:33;97496.00;;;26.87;16.46
73103;BME280;61294;65.988;29.172;2023-05-25T12:47:17;97492.81;;;28.01;16.01
73103;BME280;61294;65.988;29.172;2023-05-25T12:50:10;97500.06;;;28.58;16.74
73103;BME280;61294;65.988;29.172;2023-05-25T12:52:44;97509.81;;;28.41;17.38
73103;BME280;61294;65.988;29.172;2023-05-25T12:55:27;97508.25;;;29.04;17.03
73103;BME280;61294;65.988;29.172;2023-05-25T12:58:06;97490.84;;;27.45;17.38
73103;BME280;61294;65.988;29.172;2023-05-25T13:00:36;97489.97;;;29.06;17.30
73103;BME280;61294;65.988;29.172;2023-05-25T13:03:03;97502.09;;;30.46;17.43
73103;BME280;61294;65.988;29.172;2023-05-25T13:05:31;97504.78;;;30.72;15.75
73103;BME280;61294;65.988;29.172;2023-05-25T13:07:58;97511.53;;;28.42;16.53
73103;BME280;61294;65.988;29.172;2023-05-25T13:10:24;97499.44;;;29.02;15.39
73103;BME280;61294;65.988;29.172;2023-05-25T13:12:51;97511.69;;;28.78;15.91
73103;BME280;61294;65.988;29.172;2023-05-25T13:15:20;97504.59;;;29.23;15.92
73103;BME280;61294;65.988;29.172;2023-05-25T13:17:48;97512.28;;;28.72;16.60